createdAt,value
2022-12-18T00:01:28.642Z,31.45
2022-12-18T00:03:56.752Z,31.38
2022-12-18T00:06:26.805Z,32.25
2022-12-18T00:08:55.337Z,33.63
2022-12-18T00:11:25.046Z,31.37
2022-12-18T00:13:54.359Z,29.65
2022-12-18T00:16:23.233Z,29.48
2022-12-18T00:18:53.097Z,29.92
2022-12-18T00:21:21.267Z,28.80
2022-12-18T00:23:49.936Z,29.63
2022-12-18T00:26:24.108Z,31.83
2022-12-18T00:28:56.728Z,33.70
2022-12-18T00:31:25.573Z,28.52
2022-12-18T00:33:58.749Z,29.10
2022-12-18T00:36:28.540Z,34.25
2022-12-18T00:38:57.540Z,30.65
2022-12-18T00:41:44.418Z,27.60
2022-12-18T00:44:17.015Z,28.67
2022-12-18T00:46:45.064Z,30.52
2022-12-18T00:49:17.532Z,28.33
2022-12-18T00:51:45.027Z,26.83
2022-12-18T00:54:13.349Z,26.52
2022-12-18T00:56:48.356Z,30.20
2022-12-18T00:59:18.428Z,27.83
2022-12-18T01:01:46.345Z,29.95
2022-12-18T01:04:14.729Z,25.45
2022-12-18T01:06:42.241Z,28.27
2022-12-18T01:09:09.684Z,26.23
2022-12-18T01:11:37.839Z,23.67
2022-12-18T01:14:06.046Z,23.35
2022-12-18T01:16:33.451Z,26.97
2022-12-18T01:19:00.938Z,27.70
2022-12-18T01:21:28.505Z,29.30
2022-12-18T01:23:56.994Z,22.90
2022-12-18T01:26:26.162Z,26.50
2022-12-18T01:28:55.505Z,24.98
2022-12-18T01:31:26.894Z,23.75
2022-12-18T01:33:56.722Z,26.60
2022-12-18T01:36:27.309Z,24.90
2022-12-18T01:38:55.057Z,25.33
2022-12-18T01:41:26.847Z,25.55
2022-12-18T01:43:58.636Z,23.50
2022-12-18T01:46:27.440Z,26.83
2022-12-18T01:49:00.406Z,27.70
2022-12-18T01:51:30.560Z,23.10
2022-12-18T01:54:00.292Z,23.93
2022-12-18T01:56:28.124Z,24.23
2022-12-18T01:59:03.289Z,25.17
2022-12-18T02:01:32.258Z,26.37
2022-12-18T02:04:35.074Z,26.13
2022-12-18T02:07:15.719Z,24.92
2022-12-18T02:09:52.192Z,25.02
2022-12-18T02:12:22.799Z,24.90
2022-12-18T02:15:09.520Z,25.52
2022-12-18T02:17:53.122Z,22.90
2022-12-18T02:20:37.290Z,23.83
2022-12-18T02:23:13.739Z,20.23
2022-12-18T02:26:34.537Z,22.08
2022-12-18T02:29:06.963Z,23.42
2022-12-18T02:31:51.756Z,21.58
2022-12-18T02:34:20.871Z,21.55
2022-12-18T02:36:50.781Z,23.75
2022-12-18T02:39:21.238Z,20.83
2022-12-18T02:42:00.456Z,20.90
2022-12-18T02:44:27.968Z,21.80
2022-12-18T02:46:55.896Z,23.80
2022-12-18T02:49:29.307Z,22.50
2022-12-18T02:52:19.716Z,20.42
2022-12-18T02:54:53.607Z,21.25
2022-12-18T02:57:45.689Z,22.13
2022-12-18T03:00:18.143Z,19.73
2022-12-18T03:03:07.293Z,21.15
2022-12-18T03:05:51.324Z,18.80
2022-12-18T03:08:31.842Z,21.60
2022-12-18T03:11:09.990Z,17.40
2022-12-18T03:13:52.044Z,19.13
2022-12-18T03:16:26.991Z,20.17
2022-12-18T03:19:02.157Z,17.83
2022-12-18T03:21:36.543Z,21.13
2022-12-18T03:24:08.801Z,17.58
2022-12-18T03:26:41.176Z,16.25
2022-12-18T03:29:21.934Z,14.55
2022-12-18T03:31:55.794Z,15.00
2022-12-18T03:34:31.872Z,14.80
2022-12-18T03:37:06.012Z,17.23
2022-12-18T03:39:36.188Z,13.70
2022-12-18T03:42:10.636Z,15.32
2022-12-18T03:44:53.284Z,14.50
2022-12-18T03:47:33.088Z,12.90
2022-12-18T03:50:50.378Z,16.10
2022-12-18T03:53:41.813Z,12.57
2022-12-18T03:56:10.894Z,12.13
2022-12-18T03:58:42.882Z,14.20
2022-12-18T04:01:35.116Z,13.27
2022-12-18T04:04:04.701Z,11.70
2022-12-18T04:06:35.980Z,11.35
2022-12-18T04:09:04.950Z,12.07
2022-12-18T04:11:35.788Z,10.52
2022-12-18T04:14:07.431Z,12.68
2022-12-18T04:16:35.688Z,9.40
2022-12-18T04:19:05.429Z,10.43
2022-12-18T04:21:39.047Z,12.15
2022-12-18T04:24:07.449Z,11.10
2022-12-18T04:26:36.778Z,10.15
2022-12-18T04:29:19.077Z,8.52
2022-12-18T04:31:46.784Z,11.10
2022-12-18T04:34:14.455Z,11.70
2022-12-18T04:36:49.006Z,10.43
2022-12-18T04:39:19.911Z,11.50
2022-12-18T04:41:51.224Z,10.80
2022-12-18T04:44:19.071Z,11.07
2022-12-18T04:46:46.450Z,11.52
2022-12-18T04:49:13.975Z,11.27
2022-12-18T04:51:41.336Z,10.75
2022-12-18T04:54:08.727Z,11.52
2022-12-18T04:56:36.095Z,11.02
2022-12-18T04:59:03.465Z,10.90
2022-12-18T05:01:34.477Z,12.32
2022-12-18T05:04:03.047Z,13.47
2022-12-18T05:06:30.510Z,9.57
2022-12-18T05:08:58.014Z,11.20
2022-12-18T05:11:25.367Z,10.10
2022-12-18T05:13:52.696Z,10.63
2022-12-18T05:16:20.118Z,11.50
2022-12-18T05:18:47.459Z,13.43
2022-12-18T05:21:14.830Z,10.87
2022-12-18T05:23:42.737Z,9.45
2022-12-18T05:26:14.745Z,10.93
2022-12-18T05:28:42.146Z,9.27
2022-12-18T05:31:09.505Z,9.25
2022-12-18T05:33:37.276Z,10.60
2022-12-18T05:36:09.216Z,10.67
2022-12-18T05:38:39.135Z,9.57
2022-12-18T05:41:07.911Z,9.90
2022-12-18T05:43:37.491Z,9.98
2022-12-18T05:46:12.046Z,9.85
2022-12-18T05:48:39.418Z,10.15
2022-12-18T05:51:18.638Z,11.65
2022-12-18T05:53:46.169Z,10.15
2022-12-18T05:56:16.880Z,10.65
2022-12-18T05:58:45.022Z,8.23
2022-12-18T06:01:21.712Z,9.77
2022-12-18T06:03:50.502Z,10.25
2022-12-18T06:06:20.817Z,10.15
2022-12-18T06:08:48.409Z,12.25
2022-12-18T06:11:19.409Z,8.43
